ADDS METAR Data INFO
IDs: Format: Raw Decoded Include TAF

Data at: 2052 UTC 26 May 2017

KFBR 262035Z AUTO 27024G33KT 10SM SCT060 BKN070 BKN080 15/M03 A2995 RMK AO2 T01501028
KFBR 262015Z AUTO 27022G34KT 10SM SCT060 BKN070 BKN110 14/M02 A2995 RMK AO2 T01401017
KFBR 261955Z AUTO 26030G43KT 10SM SCT035 SCT060 SCT080 15/M02 A2994 RMK AO2 LTG DSNT E AND SE T01501020
KFBR 261935Z AUTO 26027G34KT 10SM SCT038 BKN065 OVC110 13/M01 A2994 RMK AO2 T01301011
KFBR 261915Z AUTO 25023G29KT 10SM SCT034 BKN043 OVC075 12/00 A2994 RMK AO2 T01150001
KFBR 261855Z AUTO 25021G29KT 10SM SCT034 BKN042 OVC080 10/01 A2994 RMK AO2 T01040007
KFBR 261815Z AUTO 26013G21KT 10SM SCT028 BKN034 OVC049 11/03 A2993 RMK AO2 LTG DSNT NE AND SE T01100029
KFBR 261755Z AUTO 28015G22KT 10SM BKN024 OVC030 10/03 A2994 RMK AO2 T01040032 10111 20047
KFBR 261735Z AUTO 27011G19KT 10SM OVC024 10/04 A2994 RMK AO2 T01040035
KFBR 261715Z AUTO 31007G16KT 10SM BKN024 OVC028 10/03 A2993 RMK AO2 T01030034
KFBR 261655Z AUTO 32009G16KT 280V010 10SM BKN024 BKN090 11/04 A2992 RMK AO2 T01060041
KFBR 261635Z AUTO 34012G15KT 10SM SCT017 BKN023 OVC032 09/04 A2992 RMK AO2 T00930043
KFBR 261615Z AUTO 32010KT 10SM SCT027 SCT032 BKN065 10/04 A2991 RMK AO2 T01010037
KFBR 261555Z AUTO 36005KT 10SM SCT070 SCT075 09/04 A2990 RMK AO2 T00940040
KFBR 261535Z AUTO 06008KT 10SM BKN080 08/05 A2989 RMK AO2 T00760051
KFBR 261515Z AUTO 04005G10KT 10SM SCT041 SCT048 OVC080 07/05 A2990 RMK AO2 T00670053
KFBR 261455Z AUTO 01007KT 310V030 10SM -RA SCT040 BKN048 OVC090 05/04 A2988 RMK AO2 T00530044
KFBR 261435Z AUTO 02013G16KT 10SM -RA SCT023 BKN040 OVC049 05/04 A2988 RMK AO2 T00500042
KFBR 261420Z AUTO 02014G19KT 10SM -RA BKN039 OVC048 05/04 A2990 RMK AO2
KFBR 261358Z AUTO 01014KT 10SM RA SCT042 BKN049 OVC055 05/02 A2990 RMK AO2
KFBR 261338Z AUTO 36008KT 10SM SCT060 BKN075 OVC090 07/02 A2988 RMK AO2
KFBR 261319Z AUTO 06009KT 10SM SCT060 BKN075 OVC090 06/01 A2987 RMK AO2 LTG DSNT N
KFBR 261258Z AUTO 05010KT 10SM BKN060 BKN080 BKN100 06/01 A2987 RMK AO2
KFBR 261238Z AUTO 08011G16KT 10SM OVC075 06/01 A2987 RMK AO2
KFBR 261219Z AUTO 06009KT 10SM OVC075 05/01 A2986 RMK AO2
KFBR 261019Z AUTO 03005KT 10SM BKN080 OVC095 05/M03 A2990 RMK AO2
KFBR 260919Z AUTO 13007KT 10SM BKN085 OVC110 06/M04 A2989 RMK AO2
KFBR 260858Z AUTO 15008KT 10SM OVC110 06/M04 A2990 RMK AO2
KFBR 260758Z AUTO 16006KT 10SM OVC100 07/M04 A2992 RMK AO2
KFBR 260718Z AUTO 19007KT 10SM OVC100 06/M04 A2993 RMK AO2
KFBR 260658Z AUTO 18007KT 10SM OVC100 06/M04 A2993 RMK AO2
KFBR 260639Z AUTO 19007KT 10SM OVC100 04/M04 A2994 RMK AO2
KFBR 260618Z AUTO 19008KT 10SM BKN100 04/M05 A2993 RMK AO2
KFBR 260535Z AUTO 00000KT 10SM CLR 04/M06 A2992 RMK AO2 T00441057
KFBR 260515Z AUTO 06003KT 10SM CLR 07/M05 A2993 RMK AO2 T00731048
KFBR 260455Z AUTO 02004KT 10SM CLR 08/M05 A2993 RMK AO2 T00811050
KFBR 260435Z AUTO 02003KT 10SM CLR 08/M05 A2992 RMK AO2 T00811050
KFBR 260415Z AUTO 36003KT 10SM CLR 08/M06 A2992 RMK AO2 T00841056
KFBR 260355Z AUTO 00000KT 10SM CLR 09/M07 A2991 RMK AO2 T00861069
KFBR 260335Z AUTO 35003KT 10SM CLR 08/M07 A2991 RMK AO2 T00811075
KFBR 260315Z AUTO 32003KT 10SM CLR 09/M07 A2990 RMK AO2 T00851070
KFBR 260255Z AUTO 29003KT 10SM CLR 09/M06 A2990 RMK AO2 T00861060
KFBR 260235Z AUTO 29005KT 10SM CLR 09/M06 A2988 RMK AO2 T00941060
KFBR 260215Z AUTO 29006KT 10SM CLR 12/M07 A2988 RMK AO2 T01161071
KFBR 260155Z AUTO 29010KT 10SM CLR 13/M10 A2987 RMK AO2 T01261096
KFBR 260135Z AUTO 28014G19KT 10SM CLR 14/M11 A2986 RMK AO2 T01351112
KFBR 260115Z AUTO 26012KT 10SM CLR 12/M10 A2985 RMK AO2 T01191104
KFBR 260055Z AUTO 27013G21KT 10SM CLR 13/M12 A2985 RMK AO2 T01281116
KFBR 260035Z AUTO 26014G21KT 10SM CLR 15/M12 A2985 RMK AO2 T01461118
KFBR 260015Z AUTO 26019G24KT 10SM CLR 15/M11 A2985 RMK AO2 T01481114
KFBR 252355Z AUTO 27014G22KT 10SM CLR 15/M11 A2984 RMK AO2 T01541111 10166 20119
KFBR 252335Z AUTO 27015G26KT 10SM CLR 15/M11 A2984 RMK AO2 T01541108
KFBR 252315Z AUTO 26017G22KT 10SM CLR 16/M10 A2984 RMK AO2 T01591103
KFBR 252255Z AUTO 27018G24KT 10SM SCT080 16/M08 A2983 RMK AO2 T01591082
KFBR 252235Z AUTO 26017G24KT 10SM SCT080 16/M06 A2982 RMK AO2 T01641061
KFBR 252215Z AUTO 27017G25KT 10SM BKN080 16/M03 A2982 RMK AO2 T01631033
KFBR 252155Z AUTO 25012G19KT 10SM BKN090 15/M01 A2982 RMK AO2 T01491014
KFBR 252135Z AUTO 22017G21KT 10SM SCT060 SCT070 BKN090 14/00 A2982 RMK AO2 T01381004
KFBR 252115Z AUTO 24019G30KT 10SM SCT050 BKN060 OVC070 13/01 A2983 RMK AO2 T01290009
KFBR 252050Z AUTO 27017G22KT 10SM BKN070 OVC080 14/M03 A2982 RMK AO2 T01361033
KFBR 252035Z AUTO 27014G25KT 10SM BKN070 OVC090 14/M05 A2982 RMK AO2 T01351048
KFBR 252015Z AUTO 29012G27KT 10SM BKN070 OVC090 14/M04 A2980 RMK AO2 T01381039
KFBR 251955Z AUTO 29012G21KT 10SM SCT075 BKN080 15/M04 A2980 RMK AO2 T01471043
KFBR 251935Z AUTO 27012G23KT 10SM SCT060 SCT075 SCT085 15/M03 A2981 RMK AO2 T01461031
KFBR 251915Z AUTO 28008G19KT 10SM SCT060 BKN075 BKN090 14/M03 A2980 RMK AO2 T01381030
KFBR 251855Z AUTO 27014KT 10SM BKN060 BKN075 OVC090 14/M02 A2981 RMK AO2 T01351022
KFBR 251835Z AUTO 30011G20KT 10SM SCT060 SCT070 BKN090 15/M02 A2980 RMK AO2 T01471023
KFBR 251815Z AUTO 25011KT 10SM BKN048 BKN060 BKN090 14/00 A2980 RMK AO2 T01430001
KFBR 251755Z AUTO 27010G14KT 10SM BKN046 OVC055 12/00 A2980 RMK AO2 T01180000 10134 20050
KFBR 251735Z AUTO 28010G17KT 10SM BKN044 BKN050 BKN060 13/00 A2980 RMK AO2 T01270003
KFBR 251715Z AUTO 25015G19KT 10SM SCT042 13/01 A2980 RMK AO2 T01330007
KFBR 251655Z AUTO 26014G22KT 10SM SCT038 SCT046 12/01 A2979 RMK AO2 T01240008
KFBR 251635Z AUTO 28011G18KT 10SM SCT036 12/01 A2979 RMK AO2 T01190010
KFBR 251615Z AUTO 27013G21KT 10SM SCT034 11/02 A2979 RMK AO2 T01070015
KFBR 251540Z AUTO 28012G19KT 10SM BKN028 BKN033 OVC041 09/03 A2979 RMK AO2
KFBR 251455Z AUTO 26012G16KT 10SM OVC033 09/04 A2979 RMK AO2 T00860040
KFBR 251435Z AUTO 24011G16KT 10SM BKN035 BKN046 BKN065 08/04 A2979 RMK AO2 T00750038
KFBR 251415Z AUTO 18008KT 10SM SCT049 BKN060 BKN080 06/06 A2978 RMK AO2 T00630056
KFBR 251355Z AUTO 19008KT 10SM BKN038 BKN070 OVC080 06/06 A2979 RMK AO2 T00590056
KFBR 251335Z AUTO 18007KT 10SM BKN041 OVC049 05/05 A2980 RMK AO2 T00520051
KFBR 251320Z AUTO 19009KT 10SM SCT029 SCT038 OVC048 05/05 A2980 RMK AO2
KFBR 251255Z AUTO 20008KT 10SM SCT029 BKN040 OVC050 05/05 A2981 RMK AO2 T00500050
KFBR 251235Z AUTO 19006KT 10SM SCT031 BKN046 OVC055 05/05 A2981 RMK AO2 T00520051
KFBR 251215Z AUTO 20006KT 10SM SCT031 SCT038 OVC046 05/05 A2982 RMK AO2 LTG DSNT E T00510051
KFBR 251155Z AUTO 22006KT 10SM SCT034 OVC046 05/05 A2982 RMK AO2 T00500047 10120 20050
KFBR 251135Z AUTO 25006KT 10SM SCT034 OVC042 05/05 A2982 RMK AO2 T00500047
KFBR 251115Z AUTO 28007KT 10SM -RA SCT020 SCT027 OVC033 05/05 A2982 RMK AO2 T00500045
KFBR 251055Z AUTO 30006KT 10SM -RA SCT018 BKN032 OVC049 05/04 A2982 RMK AO2 T00510044
KFBR 251035Z AUTO 32006KT 10SM -RA BKN039 OVC050 06/03 A2980 RMK AO2 T00560034
KFBR 251015Z AUTO 30006KT 10SM -RA BKN037 OVC046 06/04 A2980 RMK AO2 T00560042
KFBR 250915Z AUTO 33014G23KT 10SM SCT046 BKN050 OVC065 08/03 A2977 RMK AO2 T00750030
KFBR 250855Z AUTO 33014KT 10SM BKN050 BKN080 09/05 A2975 RMK AO2 T00850046


Page loaded:  20:52 UTC  |   01:52 PM Pacific  |   02:52 PM Mountain  |   03:52 PM Central  |   04:52 PM Eastern

 

ADVISORIES

FORECASTS

FORECASTS

OBSERVATIONS

USER TOOLS

ABOUT US